Aérodrome :
LOGIN :

S'inscrire | Disclaimer

   EN    FR    IT 

 










Légende :    VFR   VFR Marginal   IFR   IFR Intensif   IFR Très Intensif
Visi : 
Plafond : 
>= 8 km
>= 3000ft
5 à 8 km
1000 à 3000 ft
1500m à 5 km
500 à 1000 ft
800 à 1500m
200 à 500 ft
< 800m
< 200 ft
Symboles :   Orages  Brouillard  Fortes neiges  Fortes précipitations  Vent > 20 kt
SIGMETs :   Divers  Orages  Givrage  Turbulence  Onde Orograph.  Cendres Volcan.






- Altitude de l'aérodrome : 479 ft
- Code IATA : DOL


LFRG - Deauville

DERNIER METAR :
  • 271230Z AUTO 26010KT 1700 BR VV/// 09/09 Q1015 TEMPO 0400 FG

METARs EXPIRÉS :
  • 271200Z AUTO 27014KT 6000 VV/// 09/09 Q1015 TEMPO 0400 FG
  • 271130Z AUTO 28013KT 0600 R30/0800N FG VV/// 09/09 Q1015 TEMPO 0800 FG
  • 271100Z AUTO 27012KT 0400 R30/0500N FG VV/// 09/09 Q1015 TEMPO 0800 FG
  • 271030Z AUTO 26012KT 0650 0600 R30/0800N -DZ FG VV/// 08/08 Q1015 TEMPO 0800 FG
  • 271000Z AUTO 26012KT 0700 0650 R30/0800U FG VV/// 08/08 Q1014 TEMPO 0800 FG OVC003

TAF TAF LFRG
Valide du 27 à 12h jusqu'au 27 à 21h UTC


271100Z 2712/2721 26010KT 3000 BR OVC003
TEMPO 2712/2721 0400 FG VV///
BECMG 2716/2718 20010KT
PROB30
TEMPO 2717/2721 3000 RA BKN006
ATIS : +33 2 31 65 65 36



MET'MAP, la Météo Aéronautique d'un coup d'oeil ! - Copyright ORBIFLY Décembre 2007 - Disclaimer

ORBIFLY MET'MAP TEAM :

Programmation & Développement : Alexandra Zaïnal
Sur une idée originale de : Baudouin d'Aumeries
Assistance à la programmation : Marc-Olivier Méhu
Soutien technique & logistique : Manuel Goepfert

Contact : metmap@orbifly.com




SOURCES & CREDITS :

   NOAA